Data for 06/11/2013

Time Sea-Level Adjusted Pressure Absolute Pressure Temperature Relative Humidity Dew Point   
(mb) (inHg) (mb) (inHg) (C) (F) (%) (C) (F)
00:05 1013 29.91 842 24.86 15.4 59.8 66 9.2 48.5
00:10 1013 29.91 842 24.86 15.7 60.2 64 9 48.2
00:15 1013 29.91 842 24.86 15.8 60.5 63 8.9 48
00:20 1013 29.91 842 24.86 16 60.8 61 8.7 47.6
00:25 1013 29.91 842 24.86 16.2 61.1 62 8.8 47.9
00:30 1013 29.91 842 24.86 16 60.8 63 9 48.2
00:35 1013 29.91 842 24.86 15.8 60.5 64 9.2 48.5
00:40 1013 29.91 842 24.86 15.6 60.1 64 9 48.2
00:45 1013 29.91 842 24.86 15.6 60.2 64 9 48.2
00:50 1013 29.91 842 24.86 15.5 59.9 66 9.2 48.5
00:55 1013 29.91 842 24.86 15.3 59.6 66 9 48.2
01:00 1013 29.91 842 24.86 15.2 59.4 66 9 48.2
01:05 1013 29.91 842 24.86 15 59.1 67 9.1 48.4
01:10 1013 29.91 842 24.86 14.8 58.6 69 9.1 48.5
01:15 1013 29.91 842 24.86 14.6 58.3 68 8.9 48
01:20 1013 29.91 842 24.86 14.6 58.3 68 8.8 47.8
01:25 1013 29.91 842 24.86 14.5 58 70 9.1 48.5
01:30 1013 29.91 842 24.86 14.1 57.3 72 9.1 48.5
01:35 1013 29.91 842 24.86 13.9 57.1 72 8.9 48.1
01:40 1013 29.91 842 24.86 14 57.1 71 8.8 47.8
01:45 1013 29.91 842 24.86 13.9 57.1 70 8.6 47.5
01:50 1013 29.91 842 24.86 14.2 57.5 68 8.4 47.1
01:55 1013 29.91 842 24.86 14.3 57.7 68 8.6 47.4
02:00 1013 29.91 842 24.86 14.3 57.8 66 8.2 46.8
02:05 1013 29.91 842 24.86 14.2 57.6 68 8.4 47.2
02:10 1013 29.91 842 24.86 13.9 57.1 69 8.5 47.2
02:15 1013 29.91 842 24.86 13.7 56.7 70 8.3 47
02:20 1013 29.91 842 24.86 13.6 56.4 69 8 46.5
02:25 1013 29.91 842 24.86 13.6 56.5 69 8.2 46.7
02:30 1013 29.91 842 24.86 13.6 56.5 72 8.7 47.7
02:35 1013 29.91 842 24.86 13.7 56.6 71 8.6 47.4
02:40 1013 29.91 842 24.86 13.7 56.7 71 8.6 47.5
02:45 1013 29.91 842 24.86 13.6 56.5 71 8.5 47.2
02:50 1013 29.91 842 24.86 13.3 55.9 71 8.2 46.8
02:55 1013 29.91 842 24.86 13.1 55.5 72 8.1 46.7
03:00 1013 29.91 842 24.86 13 55.3 72 8.1 46.6
03:05 1013 29.91 842 24.86 13 55.3 72 8 46.4
03:10 1013 29.91 842 24.86 12.9 55.1 72 8.1 46.5
03:15 1013 29.91 842 24.86 12.8 55.1 74 8.3 47
03:20 1013 29.91 842 24.86 12.9 55.2 74 8.4 47.1
03:25 1013 29.91 842 24.86 13.2 55.7 71 8.1 46.6
03:30 1013 29.91 842 24.86 13.9 57.1 65 7.6 45.8
03:35 1013 29.91 842 24.86 14.5 58.1 66 8.4 47
03:40 1013 29.91 842 24.86 14.1 57.3 70 8.8 47.8
03:45 1013 29.91 842 24.86 13.5 56.3 72 8.6 47.5
03:50 1013 29.91 842 24.86 13.2 55.8 73 8.5 47.3
03:55 1013 29.91 842 24.86 13.1 55.6 73 8.5 47.3
04:00 1013 29.91 842 24.86 13.2 55.7 74 8.6 47.5
04:05 1013 29.91 842 24.86 12.8 55.1 75 8.5 47.3
04:10 1013 29.91 842 24.86 12.5 54.5 76 8.4 47.1
04:15 1013 29.91 842 24.86 12.4 54.4 76 8.3 47
04:20 1013 29.91 842 24.86 12.5 54.5 76 8.4 47.1
04:25 1013 29.91 842 24.86 12.4 54.2 76 8.3 47
04:30 1013 29.91 842 24.86 12.1 53.8 76 8 46.3
04:35 1013 29.91 842 24.86 12.2 54 74 7.8 46
04:40 1013 29.91 843 24.89 12.4 54.4 72 7.6 45.6
04:45 1013 29.91 843 24.89 12.2 54 72 7.3 45.1
04:50 1013 29.91 843 24.89 12.4 54.3 71 7.4 45.3
04:55 1013 29.91 843 24.89 12.6 54.6 71 7.6 45.6
05:00 1013 29.91 842 24.86 13 55.5 71 7.9 46.2
05:05 1013 29.91 842 24.86 13.2 55.7 71 8.1 46.6
05:10 1013 29.91 842 24.86 13.3 55.9 72 8.4 47.1
05:15 1013 29.91 842 24.86 13.2 55.8 73 8.4 47.2
05:20 1013 29.91 842 24.86 13.1 55.5 75 8.7 47.7
05:25 1013 29.91 842 24.86 14 57.1 69 8.4 47.1
05:30 1012 29.88 842 24.86 15 58.9 67 8.9 48
05:35 1012 29.88 842 24.86 14.9 58.9 68 9.2 48.6
05:40 1012 29.88 842 24.86 14.4 57.9 69 8.9 48.1
05:45 1012 29.88 842 24.86 14.4 57.9 69 8.8 47.9
05:50 1013 29.91 842 24.86 14.7 58.5 66 8.5 47.3
05:55 1013 29.91 842 24.86 15.2 59.4 65 8.7 47.6
06:00 1013 29.91 842 24.86 15.3 59.6 65 8.9 48
06:05 1013 29.91 842 24.86 15.3 59.5 65 8.8 47.9
06:10 1013 29.91 842 24.86 15.2 59.3 65 8.8 47.9
06:15 1013 29.91 842 24.86 15.1 59.2 66 8.9 47.9
06:20 1013 29.91 842 24.86 14.9 58.9 67 9 48.2
06:25 1013 29.91 842 24.86 14.9 58.9 66 8.7 47.7
06:30 1013 29.91 842 24.86 15.3 59.5 65 8.7 47.7
06:35 1013 29.91 842 24.86 15.3 59.6 66 9 48.2
06:40 1013 29.91 842 24.86 15.3 59.5 65 8.8 47.9
06:45 1013 29.91 842 24.86 15.6 60 65 9 48.2
06:50 1013 29.91 842 24.86 16.1 60.9 64 9.2 48.6
06:55 1013 29.91 842 24.86 16.6 61.9 63 9.5 49.2
07:00 1013 29.91 842 24.86 16.4 61.5 63 9.4 48.9
07:05 1013 29.91 842 24.86 16.5 61.7 63 9.4 49
07:10 1013 29.91 843 24.89 16.6 62 62 9.5 49.1
07:15 1013 29.91 843 24.89 16.6 61.8 62 9.3 48.7
07:20 1013 29.91 843 24.89 16.7 62 61 9.2 48.6
07:25 1013 29.91 843 24.89 17.2 62.9 59 9.3 48.7
07:30 1013 29.91 843 24.89 17.3 63.1 59 9.3 48.7
07:35 1013 29.91 842 24.86 17.7 63.9 57 9.1 48.3
07:40 1013 29.91 842 24.86 18 64.4 56 9.1 48.4
07:45 1013 29.91 842 24.86 18 64.5 57 9.4 49
07:50 1013 29.91 842 24.86 18.2 64.7 55 9 48.2
07:55 1013 29.91 842 24.86 18.3 65 56 9.4 48.9
08:00 1013 29.91 842 24.86 18.2 64.7 57 9.6 49.3
08:05 1013 29.91 842 24.86 18.4 65.2 55 9.5 49
08:10 1013 29.91 842 24.86 18.1 64.6 57 9.5 49.1
08:15 1013 29.91 842 24.86 18.2 64.7 58 9.8 49.6
08:20 1013 29.91 843 24.89 18.2 64.8 60 10.3 50.6
08:25 1013 29.91 843 24.89 18.1 64.6 60 10.4 50.6
08:30 1013 29.91 842 24.86 18.1 64.6 59 10.2 50.3
08:35 1013 29.91 843 24.89 18.5 65.3 58 10.2 50.4
08:40 1013 29.91 842 24.86 18.8 65.8 58 10.5 50.9
08:45 1013 29.91 842 24.86 18.5 65.3 57 10 50
08:50 1013 29.91 842 24.86 19 66.1 57 10.3 50.5
08:55 1013 29.91 842 24.86 18.5 65.3 57 10 50
09:00 1013 29.91 842 24.86 18.9 66 54 9.5 49.2
09:05 1013 29.91 843 24.89 19.3 66.7 52 9.4 49
09:10 1013 29.91 843 24.89 19.5 67 52 9.5 49.2
09:15 1013 29.91 843 24.89 19.7 67.4 52 9.8 49.6
09:20 1013 29.91 843 24.89 20.1 68.2 52 10.1 50.1
09:25 1013 29.91 843 24.89 19.5 67.1 55 10.3 50.5
09:30 1013 29.91 843 24.89 19.3 66.7 56 10.4 50.7
09:35 1013 29.91 843 24.89 19.6 67.3 55 10.4 50.7
09:40 1013 29.91 843 24.89 19.8 67.6 53 10.1 50.3
09:45 1013 29.91 843 24.89 19.8 67.7 53 10 50.1
09:50 1013 29.91 843 24.89 20.2 68.3 51 9.8 49.6
09:55 1013 29.91 843 24.89 20.2 68.4 50 9.7 49.4
10:00 1013 29.91 843 24.89 20.3 68.5 49 9.4 48.9
10:05 1013 29.91 843 24.89 20.7 69.3 49 9.7 49.5
10:10 1013 29.91 843 24.89 20.6 69.1 50 9.9 49.8
10:15 1013 29.91 843 24.89 20.4 68.8 46 8.6 47.5
10:20 1014 29.94 843 24.89 21.1 69.9 48 9.7 49.4
10:25 1014 29.94 843 24.89 21.4 70.6 45 9.3 48.7
10:30 1014 29.94 843 24.89 21.1 70 45 8.9 48
10:35 1014 29.94 843 24.89 21.3 70.3 45 9.2 48.5
10:40 1014 29.94 843 24.89 21.2 70.1 46 9.1 48.5
10:45 1014 29.94 843 24.89 20.9 69.6 47 9.4 49
10:50 1014 29.94 843 24.89 21.1 69.9 47 9.4 48.8
10:55 1014 29.94 843 24.89 21.3 70.4 47 9.6 49.3
11:00 1014 29.94 843 24.89 21.1 70 47 9.6 49.4
11:05 1014 29.94 843 24.89 20.9 69.7 46 8.9 48.1
11:10 1014 29.94 843 24.89 20.4 68.7 48 9.2 48.6
11:15 1014 29.94 843 24.89 20 68 51 9.8 49.6
11:20 1014 29.94 844 24.92 19.5 67.1 54 10 50.1
11:25 1015 29.97 844 24.92 19.1 66.3 54 9.6 49.3
11:30 1015 29.97 844 24.92 18.4 65 57 9.7 49.5
11:35 1015 29.97 844 24.92 17.7 63.8 60 10 50
11:40 1015 29.97 845 24.95 17.1 62.7 72 12 53.5
11:45 1016 30 845 24.95 15.8 60.4 78 11.9 53.4
11:50 1016 30 845 24.95 14.8 58.6 78 11 51.8
11:55 1016 30 845 24.95 14.4 58 77 10.5 50.8
12:00 1016 30 845 24.95 14.1 57.4 79 10.5 50.9
12:05 1016 30 845 24.95 13.8 56.8 83 10.9 51.6
12:10 1017 30.03 846 24.98 13.7 56.7 82 10.8 51.4
12:15 1017 30.03 846 24.98 13.6 56.4 84 10.9 51.5
12:20 1017 30.03 846 24.98 13.5 56.3 85 11 51.8
12:25 1017 30.03 846 24.98 13.6 56.4 86 11.2 52.2
12:30 1017 30.03 846 24.98 13.4 56.2 86 11.2 52.1
12:35 1017 30.03 846 24.98 12.9 55.2 89 11.1 52
12:40 1017 30.03 846 24.98 12.7 54.8 89 10.9 51.7
12:45 1016 30 846 24.98 12.6 54.6 90 11 51.8
12:50 1016 30 845 24.95 12.6 54.6 90 11 51.7
12:55 1016 30 845 24.95 12.6 54.7 88 10.7 51.3
13:00 1015 29.97 845 24.95 12.6 54.7 89 10.8 51.4
13:05 1015 29.97 844 24.92 12.7 54.8 89 10.9 51.6
13:10 1014 29.94 844 24.92 12.7 54.9 89 10.9 51.7
13:15 1014 29.94 843 24.89 13 55.3 86 10.6 51.1
13:20 1014 29.94 844 24.92 13.3 55.9 86 10.9 51.7
13:25 1014 29.94 844 24.92 13.5 56.2 85 11 51.8
13:30 1014 29.94 844 24.92 13.9 56.9 83 11 51.8
13:35 1014 29.94 844 24.92 14.1 57.5 83 11.3 52.3
13:40 1014 29.94 844 24.92 14.4 57.9 81 11.1 52.1
13:45 1014 29.94 844 24.92 14.8 58.6 76 10.6 51.1
13:50 1014 29.94 844 24.92 15.5 59.9 77 11.5 52.7
13:55 1015 29.97 844 24.92 16.4 61.6 74 11.8 53.2
14:00 1014 29.94 844 24.92 16.7 62 69 10.9 51.7
14:05 1014 29.94 844 24.92 16.9 62.4 68 11 51.8
14:10 1014 29.94 844 24.92 17.1 62.7 65 10.5 51
14:15 1014 29.94 844 24.92 17 62.6 67 10.8 51.5
14:20 1014 29.94 843 24.89 17.6 63.6 62 10.4 50.7
14:25 1014 29.94 843 24.89 17.8 64 61 10.3 50.6
14:30 1014 29.94 843 24.89 18.4 65 59 10.2 50.4
14:35 1014 29.94 843 24.89 19 66.1 55 9.9 49.7
14:40 1014 29.94 843 24.89 19.8 67.6 52 9.8 49.6
14:45 1014 29.94 843 24.89 19.8 67.6 51 9.5 49.1
14:50 1014 29.94 843 24.89 20.2 68.3 49 9.2 48.6
14:55 1014 29.94 843 24.89 20.6 69 51 10.1 50.2
15:00 1014 29.94 843 24.89 20.8 69.4 47 9.3 48.7
15:05 1014 29.94 843 24.89 20.2 68.3 48 8.8 47.9
15:10 1014 29.94 843 24.89 20.4 68.7 47 8.8 47.9
15:15 1014 29.94 843 24.89 20.5 68.8 43 7.7 45.8
15:20 1014 29.94 843 24.89 20.4 68.7 42 7.4 45.2
15:25 1014 29.94 843 24.89 20.7 69.2 43 7.7 45.9
15:30 1014 29.94 843 24.89 21.1 70.1 39 6.7 44.1
15:35 1014 29.94 843 24.89 22.2 71.9 35 6 42.8
15:40 1014 29.94 843 24.89 22.5 72.6 39 8.1 46.6
15:45 1014 29.94 843 24.89 21.6 70.9 41 8 46.4
15:50 1014 29.94 843 24.89 21.5 70.6 42 8.1 46.5
15:55 1014 29.94 843 24.89 21.3 70.4 42 8 46.5
16:00 1014 29.94 844 24.92 21 69.8 42 7.9 46.2
16:05 1015 29.97 844 24.92 20.6 69 44 8.1 46.6
16:10 1016 30 846 24.98 18.3 64.9 57 9.7 49.5
16:15 1017 30.03 846 24.98 14 57.2 74 9.5 49.1
16:20 1017 30.03 846 24.98 11.7 53 81 8.5 47.2
16:25 1017 30.03 847 25.01 11.1 52 81 7.9 46.3
16:30 1018 30.06 847 25.01 11.7 53 79 8.1 46.5
16:35 1018 30.06 847 25.01 11.8 53.3 77 8.1 46.5
16:40 1018 30.06 847 25.01 11.3 52.3 80 8 46.4
16:45 1018 30.06 847 25.01 11.1 52 86 8.8 47.8
16:50 1018 30.06 847 25.01 11 51.9 86 8.8 47.8
16:55 1018 30.06 848 25.04 10.9 51.7 88 9 48.3
17:00 1019 30.09 848 25.04 10.7 51.3 89 8.9 48.1
17:05 1019 30.09 848 25.04 10.7 51.3 89 9 48.2
17:10 1019 30.09 848 25.04 10.7 51.3 90 9.1 48.3
17:15 1018 30.06 847 25.01 10.7 51.2 90 9.1 48.4
17:20 1017 30.03 847 25.01 10.7 51.2 90 9.2 48.6
17:25 1017 30.03 846 24.98 10.7 51.2 91 9.3 48.8
17:30 1017 30.03 846 24.98 10.7 51.3 91 9.3 48.8
17:35 1017 30.03 846 24.98 10.7 51.2 91 9.3 48.8
17:40 1016 30 845 24.95 10.7 51.3 91 9.3 48.7
17:45 1016 30 845 24.95 10.9 51.7 89 9.3 48.7
17:50 1016 30 845 24.95 11.2 52.1 89 9.5 49.1
17:55 1016 30 845 24.95 11.4 52.5 88 9.5 49.1
18:00 1016 30 845 24.95 11.7 53 88 9.7 49.4
18:05 1016 30 845 24.95 11.9 53.4 87 9.8 49.7
18:10 1016 30 845 24.95 12.1 53.8 87 10.1 50.2
18:15 1016 30 845 24.95 12.4 54.2 86 10 50.1
18:20 1016 30 845 24.95 12.5 54.6 86 10.3 50.5
18:25 1016 30 845 24.95 12.7 54.8 85 10.3 50.5
18:30 1016 30 845 24.95 12.8 55 83 10 50
18:35 1016 30 845 24.95 12.8 55 82 9.8 49.6
18:40 1016 30 845 24.95 12.8 55 81 9.7 49.4
18:45 1016 30 845 24.95 12.8 55 82 9.9 49.7
18:50 1016 30 845 24.95 12.7 54.9 83 10 49.9
18:55 1016 30 845 24.95 12.7 54.8 83 10 49.9
19:00 1016 30 846 24.98 12.7 54.9 82 9.7 49.4
19:05 1017 30.03 846 24.98 12.9 55.1 81 9.6 49.4
19:10 1017 30.03 846 24.98 12.9 55.3 78 9.3 48.7
19:15 1017 30.03 846 24.98 13 55.3 78 9.3 48.8
19:20 1017 30.03 846 24.98 12.9 55.2 78 9.1 48.4
19:25 1017 30.03 846 24.98 12.9 55.3 77 9.1 48.4
19:30 1017 30.03 846 24.98 12.9 55.2 78 9.2 48.5
19:35 1017 30.03 846 24.98 12.8 55 80 9.4 49
19:40 1017 30.03 846 24.98 12.7 54.8 82 9.7 49.4
19:45 1017 30.03 846 24.98 12.5 54.5 81 9.4 48.9
19:50 1017 30.03 846 24.98 12.5 54.4 82 9.6 49.3
19:55 1017 30.03 846 24.98 12.4 54.2 84 9.8 49.6
20:00 1017 30.03 846 24.98 12.2 54 84 9.6 49.3
20:05 1017 30.03 847 25.01 12.3 54.1 82 9.2 48.6
20:10 1018 30.06 847 25.01 12.5 54.4 81 9.2 48.6
20:15 1018 30.06 847 25.01 12.6 54.7 81 9.4 48.9
20:20 1018 30.06 847 25.01 12.7 54.9 83 9.8 49.7
20:25 1018 30.06 847 25.01 12.7 54.8 81 9.6 49.2
20:30 1018 30.06 847 25.01 12.7 54.9 84 10.1 50.1
20:35 1018 30.06 847 25.01 12.5 54.5 86 10.2 50.4
20:40 1018 30.06 847 25.01 12.3 54.1 87 10.1 50.2
20:45 1018 30.06 847 25.01 12.1 53.8 88 10.2 50.4
20:50 1018 30.06 847 25.01 11.9 53.5 89 10.2 50.3
20:55 1018 30.06 848 25.04 11.8 53.3 89 10.1 50.2
21:00 1018 30.06 848 25.04 11.8 53.2 90 10.2 50.3
21:05 1018 30.06 848 25.04 11.6 52.8 90 10 50
21:10 1018 30.06 848 25.04 11.4 52.6 89 9.7 49.4
21:15 1018 30.06 848 25.04 11.5 52.6 88 9.5 49.1
21:20 1019 30.09 848 25.04 11.5 52.6 88 9.5 49.1
21:25 1019 30.09 848 25.04 11.4 52.5 88 9.5 49.1
21:30 1019 30.09 848 25.04 11.4 52.5 87 9.4 48.8
21:35 1019 30.09 848 25.04 11.4 52.5 86 9.2 48.6
21:40 1019 30.09 848 25.04 11.6 52.9 85 9.2 48.6
21:45 1019 30.09 848 25.04 11.6 52.8 86 9.3 48.7
21:50 1019 30.09 848 25.04 11.5 52.7 85 9.2 48.5
21:55 1019 30.09 848 25.04 11.4 52.6 86 9.1 48.4
22:00 1019 30.09 848 25.04 11.4 52.4 86 9.2 48.5
22:05 1019 30.09 848 25.04 11.3 52.3 86 9.1 48.3
22:10 1019 30.09 848 25.04 11.2 52.2 86 9 48.2
22:15 1019 30.09 848 25.04 11.2 52.1 86 8.9 48
22:20 1019 30.09 848 25.04 11.2 52.1 85 8.8 47.9
22:25 1019 30.09 848 25.04 11.2 52.1 86 8.9 48.1
22:30 1019 30.09 848 25.04 11.2 52.1 86 9 48.2
22:35 1019 30.09 848 25.04 11.4 52.5 83 8.7 47.7
22:40 1019 30.09 848 25.04 11.6 52.8 84 9 48.3
22:45 1019 30.09 848 25.04 11.4 52.4 85 8.9 48.1
22:50 1019 30.09 848 25.04 11.3 52.3 85 8.9 48.1
22:55 1019 30.09 848 25.04 11.1 52 86 8.9 48
23:00 1019 30.09 848 25.04 11 51.8 87 8.9 48.1
23:05 1019 30.09 848 25.04 11 51.7 86 8.8 47.8
23:10 1019 30.09 848 25.04 11.3 52.3 83 8.5 47.3
23:15 1019 30.09 848 25.04 11.3 52.4 85 8.9 48
23:20 1019 30.09 848 25.04 10.9 51.7 88 8.9 48.1
23:25 1019 30.09 848 25.04 10.7 51.3 87 8.7 47.7
23:30 1019 30.09 848 25.04 10.6 51.1 88 8.8 47.8
23:35 1019 30.09 848 25.04 10.7 51.2 87 8.7 47.6
23:40 1019 30.09 849 25.07 10.6 51.1 88 8.7 47.6
23:45 1019 30.09 849 25.07 10.5 50.8 88 8.6 47.4
23:50 1019 30.09 849 25.07 10.3 50.6 88 8.4 47.1
23:55 1019 30.09 849 25.07 10.4 50.6 86 8.1 46.6
24:00 1019 30.09 849 25.07 10.5 50.9 85 8.2 46.7